sensor_id;sensor_type;location;lat;lon;timestamp;P1;durP1;ratioP1;P2;durP2;ratioP2
61938;SDS011;47897;50.322;18.892;2022-10-16T00:02:21;37.10;;;24.00;;
61938;SDS011;47897;50.322;18.892;2022-10-16T00:05:05;37.50;;;22.50;;
61938;SDS011;47897;50.322;18.892;2022-10-16T00:07:50;35.10;;;21.80;;
61938;SDS011;47897;50.322;18.892;2022-10-16T00:10:34;35.80;;;21.70;;
61938;SDS011;47897;50.322;18.892;2022-10-16T00:13:19;39.30;;;24.20;;
61938;SDS011;47897;50.322;18.892;2022-10-16T00:16:05;39.40;;;23.20;;
61938;SDS011;47897;50.322;18.892;2022-10-16T00:18:49;36.10;;;22.70;;
61938;SDS011;47897;50.322;18.892;2022-10-16T00:21:33;36.60;;;22.10;;
61938;SDS011;47897;50.322;18.892;2022-10-16T00:24:18;40.60;;;24.50;;
61938;SDS011;47897;50.322;18.892;2022-10-16T00:27:02;40.50;;;23.40;;
61938;SDS011;47897;50.322;18.892;2022-10-16T00:29:50;41.20;;;23.10;;
61938;SDS011;47897;50.322;18.892;2022-10-16T00:32:35;34.50;;;22.40;;
61938;SDS011;47897;50.322;18.892;2022-10-16T00:35:19;43.20;;;23.70;;
61938;SDS011;47897;50.322;18.892;2022-10-16T00:38:04;37.80;;;23.00;;
61938;SDS011;47897;50.322;18.892;2022-10-16T00:40:48;35.60;;;22.40;;
61938;SDS011;47897;50.322;18.892;2022-10-16T00:46:29;40.30;;;23.10;;
61938;SDS011;47897;50.322;18.892;2022-10-16T00:49:25;38.60;;;22.40;;
61938;SDS011;47897;50.322;18.892;2022-10-16T00:52:09;37.00;;;23.50;;
61938;SDS011;47897;50.322;18.892;2022-10-16T00:54:54;44.30;;;23.80;;
61938;SDS011;47897;50.322;18.892;2022-10-16T00:57:40;39.80;;;23.00;;
61938;SDS011;47897;50.322;18.892;2022-10-16T01:00:26;45.50;;;23.50;;
61938;SDS011;47897;50.322;18.892;2022-10-16T01:03:25;42.80;;;23.40;;
61938;SDS011;47897;50.322;18.892;2022-10-16T01:06:51;39.30;;;22.20;;
61938;SDS011;47897;50.322;18.892;2022-10-16T01:09:33;38.90;;;22.10;;
61938;SDS011;47897;50.322;18.892;2022-10-16T01:18:16;49.70;;;26.00;;
61938;SDS011;47897;50.322;18.892;2022-10-16T01:21:16;39.30;;;24.20;;
61938;SDS011;47897;50.322;18.892;2022-10-16T01:24:16;39.60;;;23.60;;
61938;SDS011;47897;50.322;18.892;2022-10-16T01:27:21;45.30;;;25.10;;
61938;SDS011;47897;50.322;18.892;2022-10-16T01:30:13;39.40;;;24.40;;
61938;SDS011;47897;50.322;18.892;2022-10-16T01:33:05;41.20;;;24.50;;
61938;SDS011;47897;50.322;18.892;2022-10-16T01:35:56;47.30;;;25.60;;
61938;SDS011;47897;50.322;18.892;2022-10-16T01:38:47;42.00;;;25.80;;
61938;SDS011;47897;50.322;18.892;2022-10-16T01:41:37;44.30;;;24.80;;
61938;SDS011;47897;50.322;18.892;2022-10-16T01:44:26;43.70;;;26.30;;
61938;SDS011;47897;50.322;18.892;2022-10-16T01:47:14;40.60;;;25.70;;
61938;SDS011;47897;50.322;18.892;2022-10-16T01:50:02;44.50;;;25.20;;
61938;SDS011;47897;50.322;18.892;2022-10-16T01:52:51;39.20;;;23.80;;
61938;SDS011;47897;50.322;18.892;2022-10-16T01:55:39;39.00;;;25.60;;
61938;SDS011;47897;50.322;18.892;2022-10-16T01:58:28;46.00;;;26.60;;
61938;SDS011;47897;50.322;18.892;2022-10-16T02:01:19;41.10;;;26.00;;
61938;SDS011;47897;50.322;18.892;2022-10-16T02:04:19;40.40;;;25.00;;
61938;SDS011;47897;50.322;18.892;2022-10-16T02:07:08;40.20;;;26.50;;
61938;SDS011;47897;50.322;18.892;2022-10-16T02:09:53;44.90;;;25.30;;
61938;SDS011;47897;50.322;18.892;2022-10-16T02:12:39;45.60;;;27.10;;
61938;SDS011;47897;50.322;18.892;2022-10-16T02:15:28;47.90;;;26.20;;
61938;SDS011;47897;50.322;18.892;2022-10-16T02:18:13;43.20;;;25.30;;
61938;SDS011;47897;50.322;18.892;2022-10-16T02:21:16;41.10;;;24.40;;
61938;SDS011;47897;50.322;18.892;2022-10-16T02:30:04;48.20;;;26.70;;
61938;SDS011;47897;50.322;18.892;2022-10-16T02:32:53;44.70;;;25.90;;
61938;SDS011;47897;50.322;18.892;2022-10-16T02:35:39;53.70;;;27.40;;
61938;SDS011;47897;50.322;18.892;2022-10-16T02:38:25;51.10;;;28.60;;
61938;SDS011;47897;50.322;18.892;2022-10-16T02:41:11;49.90;;;28.00;;
61938;SDS011;47897;50.322;18.892;2022-10-16T02:43:55;59.70;;;31.80;;
61938;SDS011;47897;50.322;18.892;2022-10-16T02:46:39;49.10;;;26.60;;
61938;SDS011;47897;50.322;18.892;2022-10-16T02:49:23;53.50;;;28.70;;
61938;SDS011;47897;50.322;18.892;2022-10-16T02:52:07;47.20;;;27.80;;
61938;SDS011;47897;50.322;18.892;2022-10-16T02:54:52;46.60;;;26.60;;
61938;SDS011;47897;50.322;18.892;2022-10-16T02:57:36;49.80;;;27.80;;
61938;SDS011;47897;50.322;18.892;2022-10-16T03:00:21;57.90;;;30.20;;
61938;SDS011;47897;50.322;18.892;2022-10-16T03:03:05;52.50;;;28.80;;
61938;SDS011;47897;50.322;18.892;2022-10-16T03:05:49;50.10;;;29.00;;
61938;SDS011;47897;50.322;18.892;2022-10-16T03:08:33;57.10;;;30.70;;
61938;SDS011;47897;50.322;18.892;2022-10-16T03:11:17;54.10;;;32.90;;
61938;SDS011;47897;50.322;18.892;2022-10-16T03:14:02;56.50;;;30.50;;
61938;SDS011;47897;50.322;18.892;2022-10-16T03:16:46;54.10;;;28.90;;
61938;SDS011;47897;50.322;18.892;2022-10-16T03:19:30;50.30;;;28.30;;
61938;SDS011;47897;50.322;18.892;2022-10-16T03:22:14;53.60;;;28.40;;
61938;SDS011;47897;50.322;18.892;2022-10-16T03:24:58;49.80;;;29.20;;
61938;SDS011;47897;50.322;18.892;2022-10-16T03:27:42;48.30;;;27.10;;
61938;SDS011;47897;50.322;18.892;2022-10-16T03:30:26;47.80;;;27.70;;
61938;SDS011;47897;50.322;18.892;2022-10-16T03:33:10;56.60;;;29.60;;
61938;SDS011;47897;50.322;18.892;2022-10-16T03:35:55;57.20;;;29.10;;
61938;SDS011;47897;50.322;18.892;2022-10-16T03:38:40;59.60;;;29.60;;
61938;SDS011;47897;50.322;18.892;2022-10-16T03:41:24;54.40;;;29.00;;
61938;SDS011;47897;50.322;18.892;2022-10-16T03:44:08;55.30;;;29.00;;
61938;SDS011;47897;50.322;18.892;2022-10-16T03:46:52;51.80;;;27.30;;
61938;SDS011;47897;50.322;18.892;2022-10-16T03:49:37;54.60;;;27.90;;
61938;SDS011;47897;50.322;18.892;2022-10-16T03:52:21;50.20;;;28.00;;
61938;SDS011;47897;50.322;18.892;2022-10-16T03:55:06;49.50;;;27.40;;
61938;SDS011;47897;50.322;18.892;2022-10-16T03:57:51;50.80;;;28.90;;
61938;SDS011;47897;50.322;18.892;2022-10-16T04:00:35;56.80;;;28.30;;
61938;SDS011;47897;50.322;18.892;2022-10-16T04:03:20;58.70;;;28.20;;
61938;SDS011;47897;50.322;18.892;2022-10-16T04:05:46;52.10;;;27.60;;
61938;SDS011;47897;50.322;18.892;2022-10-16T04:08:12;46.40;;;27.70;;
61938;SDS011;47897;50.322;18.892;2022-10-16T04:10:38;49.90;;;28.20;;
61938;SDS011;47897;50.322;18.892;2022-10-16T04:13:03;53.70;;;27.30;;
61938;SDS011;47897;50.322;18.892;2022-10-16T04:15:29;48.50;;;25.90;;
61938;SDS011;47897;50.322;18.892;2022-10-16T04:17:55;48.00;;;27.10;;
61938;SDS011;47897;50.322;18.892;2022-10-16T04:20:21;53.60;;;27.20;;
61938;SDS011;47897;50.322;18.892;2022-10-16T04:22:46;50.10;;;28.40;;
61938;SDS011;47897;50.322;18.892;2022-10-16T04:25:12;52.10;;;26.50;;
61938;SDS011;47897;50.322;18.892;2022-10-16T04:27:38;51.50;;;26.60;;
61938;SDS011;47897;50.322;18.892;2022-10-16T04:30:04;52.60;;;27.20;;
61938;SDS011;47897;50.322;18.892;2022-10-16T04:32:30;54.60;;;30.10;;
61938;SDS011;47897;50.322;18.892;2022-10-16T04:34:56;54.60;;;28.50;;
61938;SDS011;47897;50.322;18.892;2022-10-16T04:37:25;49.40;;;28.00;;
61938;SDS011;47897;50.322;18.892;2022-10-16T04:39:52;46.90;;;27.40;;
61938;SDS011;47897;50.322;18.892;2022-10-16T04:42:18;45.70;;;26.40;;
61938;SDS011;47897;50.322;18.892;2022-10-16T04:44:44;47.80;;;26.10;;
61938;SDS011;47897;50.322;18.892;2022-10-16T04:47:10;41.40;;;24.30;;
61938;SDS011;47897;50.322;18.892;2022-10-16T04:49:36;51.50;;;24.70;;
61938;SDS011;47897;50.322;18.892;2022-10-16T04:52:01;49.80;;;28.20;;
61938;SDS011;47897;50.322;18.892;2022-10-16T04:54:27;48.10;;;26.10;;
61938;SDS011;47897;50.322;18.892;2022-10-16T04:56:53;48.00;;;27.00;;
61938;SDS011;47897;50.322;18.892;2022-10-16T04:59:18;47.20;;;25.80;;
61938;SDS011;47897;50.322;18.892;2022-10-16T05:01:45;49.10;;;26.50;;
61938;SDS011;47897;50.322;18.892;2022-10-16T05:04:11;54.80;;;27.80;;
61938;SDS011;47897;50.322;18.892;2022-10-16T05:06:37;51.80;;;27.40;;
61938;SDS011;47897;50.322;18.892;2022-10-16T05:09:04;44.60;;;26.50;;
61938;SDS011;47897;50.322;18.892;2022-10-16T05:11:30;46.80;;;25.60;;
61938;SDS011;47897;50.322;18.892;2022-10-16T05:13:57;49.80;;;27.20;;
61938;SDS011;47897;50.322;18.892;2022-10-16T05:16:22;49.90;;;27.40;;
61938;SDS011;47897;50.322;18.892;2022-10-16T05:18:48;55.10;;;28.10;;
61938;SDS011;47897;50.322;18.892;2022-10-16T05:21:14;46.80;;;26.40;;
61938;SDS011;47897;50.322;18.892;2022-10-16T05:23:39;51.80;;;28.70;;
61938;SDS011;47897;50.322;18.892;2022-10-16T05:26:05;53.90;;;27.80;;
61938;SDS011;47897;50.322;18.892;2022-10-16T05:28:31;59.30;;;30.50;;
61938;SDS011;47897;50.322;18.892;2022-10-16T05:30:57;57.60;;;29.70;;
61938;SDS011;47897;50.322;18.892;2022-10-16T05:33:24;57.80;;;30.10;;
61938;SDS011;47897;50.322;18.892;2022-10-16T05:35:50;51.10;;;27.80;;
61938;SDS011;47897;50.322;18.892;2022-10-16T05:38:17;53.20;;;29.60;;
61938;SDS011;47897;50.322;18.892;2022-10-16T05:40:43;61.10;;;33.30;;
61938;SDS011;47897;50.322;18.892;2022-10-16T05:43:09;55.40;;;30.40;;
61938;SDS011;47897;50.322;18.892;2022-10-16T05:45:34;55.60;;;31.60;;
61938;SDS011;47897;50.322;18.892;2022-10-16T05:48:00;49.80;;;28.60;;
61938;SDS011;47897;50.322;18.892;2022-10-16T05:50:26;54.90;;;30.00;;
61938;SDS011;47897;50.322;18.892;2022-10-16T05:52:52;56.20;;;29.80;;
61938;SDS011;47897;50.322;18.892;2022-10-16T05:55:17;55.10;;;29.90;;
61938;SDS011;47897;50.322;18.892;2022-10-16T05:57:44;50.10;;;29.30;;
61938;SDS011;47897;50.322;18.892;2022-10-16T06:00:10;55.00;;;30.60;;
61938;SDS011;47897;50.322;18.892;2022-10-16T06:02:36;59.10;;;29.90;;
61938;SDS011;47897;50.322;18.892;2022-10-16T06:05:01;65.20;;;36.40;;
61938;SDS011;47897;50.322;18.892;2022-10-16T06:07:27;84.20;;;47.10;;
61938;SDS011;47897;50.322;18.892;2022-10-16T06:09:53;74.80;;;45.10;;
61938;SDS011;47897;50.322;18.892;2022-10-16T06:12:19;74.30;;;42.00;;
61938;SDS011;47897;50.322;18.892;2022-10-16T06:14:45;75.70;;;40.90;;
61938;SDS011;47897;50.322;18.892;2022-10-16T06:17:14;62.40;;;35.20;;
61938;SDS011;47897;50.322;18.892;2022-10-16T06:19:40;66.60;;;34.90;;
61938;SDS011;47897;50.322;18.892;2022-10-16T06:22:06;51.20;;;29.00;;
61938;SDS011;47897;50.322;18.892;2022-10-16T06:24:32;68.80;;;37.60;;
61938;SDS011;47897;50.322;18.892;2022-10-16T06:26:57;57.00;;;31.50;;
61938;SDS011;47897;50.322;18.892;2022-10-16T06:29:23;64.40;;;34.00;;
61938;SDS011;47897;50.322;18.892;2022-10-16T06:31:49;66.40;;;37.30;;
61938;SDS011;47897;50.322;18.892;2022-10-16T06:34:14;64.30;;;35.80;;
61938;SDS011;47897;50.322;18.892;2022-10-16T06:36:40;63.70;;;36.00;;
61938;SDS011;47897;50.322;18.892;2022-10-16T06:39:06;56.00;;;30.40;;
61938;SDS011;47897;50.322;18.892;2022-10-16T06:41:32;50.60;;;29.40;;
61938;SDS011;47897;50.322;18.892;2022-10-16T06:43:59;59.10;;;32.90;;
61938;SDS011;47897;50.322;18.892;2022-10-16T06:46:25;61.60;;;32.70;;
61938;SDS011;47897;50.322;18.892;2022-10-16T06:48:52;66.70;;;31.40;;
61938;SDS011;47897;50.322;18.892;2022-10-16T06:51:19;52.50;;;26.60;;
61938;SDS011;47897;50.322;18.892;2022-10-16T06:53:48;47.60;;;25.80;;
61938;SDS011;47897;50.322;18.892;2022-10-16T06:56:16;47.80;;;25.00;;
61938;SDS011;47897;50.322;18.892;2022-10-16T06:58:47;48.40;;;26.20;;
61938;SDS011;47897;50.322;18.892;2022-10-16T07:01:13;47.20;;;25.30;;
61938;SDS011;47897;50.322;18.892;2022-10-16T07:03:40;45.90;;;21.90;;
61938;SDS011;47897;50.322;18.892;2022-10-16T07:06:07;44.70;;;22.10;;
61938;SDS011;47897;50.322;18.892;2022-10-16T07:08:36;36.50;;;21.20;;
61938;SDS011;47897;50.322;18.892;2022-10-16T07:11:04;37.60;;;23.10;;
61938;SDS011;47897;50.322;18.892;2022-10-16T07:13:42;37.40;;;23.20;;
61938;SDS011;47897;50.322;18.892;2022-10-16T07:16:11;35.70;;;21.80;;
61938;SDS011;47897;50.322;18.892;2022-10-16T07:18:38;33.40;;;21.00;;
61938;SDS011;47897;50.322;18.892;2022-10-16T07:21:10;33.40;;;20.60;;
61938;SDS011;47897;50.322;18.892;2022-10-16T07:23:44;42.20;;;21.70;;
61938;SDS011;47897;50.322;18.892;2022-10-16T07:26:10;36.30;;;21.30;;
61938;SDS011;47897;50.322;18.892;2022-10-16T07:28:36;34.30;;;20.80;;
61938;SDS011;47897;50.322;18.892;2022-10-16T07:31:03;36.40;;;23.20;;
61938;SDS011;47897;50.322;18.892;2022-10-16T07:33:32;34.00;;;22.20;;
61938;SDS011;47897;50.322;18.892;2022-10-16T07:35:58;40.40;;;25.40;;
61938;SDS011;47897;50.322;18.892;2022-10-16T07:38:24;40.20;;;24.20;;
61938;SDS011;47897;50.322;18.892;2022-10-16T07:40:57;37.10;;;22.20;;
61938;SDS011;47897;50.322;18.892;2022-10-16T07:43:24;37.20;;;21.60;;
61938;SDS011;47897;50.322;18.892;2022-10-16T07:45:51;43.60;;;24.50;;
61938;SDS011;47897;50.322;18.892;2022-10-16T07:48:17;41.60;;;24.50;;
61938;SDS011;47897;50.322;18.892;2022-10-16T07:50:43;38.80;;;23.10;;
61938;SDS011;47897;50.322;18.892;2022-10-16T07:53:09;37.10;;;22.40;;
61938;SDS011;47897;50.322;18.892;2022-10-16T07:55:37;35.50;;;21.40;;
61938;SDS011;47897;50.322;18.892;2022-10-16T07:58:03;33.90;;;21.80;;
61938;SDS011;47897;50.322;18.892;2022-10-16T08:00:29;34.20;;;20.60;;
61938;SDS011;47897;50.322;18.892;2022-10-16T08:02:56;33.10;;;20.60;;
61938;SDS011;47897;50.322;18.892;2022-10-16T08:05:29;33.60;;;20.90;;
61938;SDS011;47897;50.322;18.892;2022-10-16T08:07:56;30.90;;;18.80;;
61938;SDS011;47897;50.322;18.892;2022-10-16T08:10:23;34.20;;;18.80;;
61938;SDS011;47897;50.322;18.892;2022-10-16T08:12:51;31.80;;;20.30;;
61938;SDS011;47897;50.322;18.892;2022-10-16T08:15:18;32.60;;;20.90;;
61938;SDS011;47897;50.322;18.892;2022-10-16T08:17:45;31.70;;;20.00;;
61938;SDS011;47897;50.322;18.892;2022-10-16T08:20:27;32.70;;;18.60;;
61938;SDS011;47897;50.322;18.892;2022-10-16T08:22:54;31.50;;;20.00;;
61938;SDS011;47897;50.322;18.892;2022-10-16T08:25:21;28.90;;;19.50;;
61938;SDS011;47897;50.322;18.892;2022-10-16T08:27:49;31.30;;;17.60;;
61938;SDS011;47897;50.322;18.892;2022-10-16T08:30:17;30.50;;;18.80;;
61938;SDS011;47897;50.322;18.892;2022-10-16T08:32:44;36.70;;;19.30;;
61938;SDS011;47897;50.322;18.892;2022-10-16T08:35:10;33.90;;;19.90;;
61938;SDS011;47897;50.322;18.892;2022-10-16T08:37:37;28.30;;;18.50;;
61938;SDS011;47897;50.322;18.892;2022-10-16T08:40:06;24.10;;;16.20;;
61938;SDS011;47897;50.322;18.892;2022-10-16T08:43:06;23.80;;;16.40;;
61938;SDS011;47897;50.322;18.892;2022-10-16T08:48:54;25.60;;;17.30;;
61938;SDS011;47897;50.322;18.892;2022-10-16T08:51:29;22.70;;;15.80;;
61938;SDS011;47897;50.322;18.892;2022-10-16T08:56:30;27.30;;;16.70;;
61938;SDS011;47897;50.322;18.892;2022-10-16T08:58:57;28.90;;;17.00;;
61938;SDS011;47897;50.322;18.892;2022-10-16T09:01:24;27.60;;;16.40;;
61938;SDS011;47897;50.322;18.892;2022-10-16T09:07:14;23.80;;;15.60;;
61938;SDS011;47897;50.322;18.892;2022-10-16T09:09:58;27.00;;;16.60;;
61938;SDS011;47897;50.322;18.892;2022-10-16T09:20:59;24.60;;;16.00;;
61938;SDS011;47897;50.322;18.892;2022-10-16T09:23:29;26.60;;;16.20;;
61938;SDS011;47897;50.322;18.892;2022-10-16T09:25:59;21.90;;;15.60;;
61938;SDS011;47897;50.322;18.892;2022-10-16T09:28:25;26.40;;;18.50;;
61938;SDS011;47897;50.322;18.892;2022-10-16T09:30:51;25.20;;;17.70;;
61938;SDS011;47897;50.322;18.892;2022-10-16T09:33:18;28.40;;;17.60;;
61938;SDS011;47897;50.322;18.892;2022-10-16T09:35:48;25.10;;;17.00;;
61938;SDS011;47897;50.322;18.892;2022-10-16T09:38:23;27.10;;;16.80;;
61938;SDS011;47897;50.322;18.892;2022-10-16T09:40:51;25.40;;;15.60;;
61938;SDS011;47897;50.322;18.892;2022-10-16T09:43:22;26.10;;;16.90;;
61938;SDS011;47897;50.322;18.892;2022-10-16T09:45:59;23.90;;;15.50;;
61938;SDS011;47897;50.322;18.892;2022-10-16T09:48:28;26.10;;;16.20;;
61938;SDS011;47897;50.322;18.892;2022-10-16T09:51:02;25.80;;;17.20;;
61938;SDS011;47897;50.322;18.892;2022-10-16T09:53:41;24.10;;;15.40;;
61938;SDS011;47897;50.322;18.892;2022-10-16T09:56:09;24.40;;;16.30;;
61938;SDS011;47897;50.322;18.892;2022-10-16T09:58:41;21.00;;;13.70;;
61938;SDS011;47897;50.322;18.892;2022-10-16T10:01:13;20.50;;;13.80;;
61938;SDS011;47897;50.322;18.892;2022-10-16T10:03:41;28.70;;;16.30;;
61938;SDS011;47897;50.322;18.892;2022-10-16T10:06:20;24.10;;;14.60;;
61938;SDS011;47897;50.322;18.892;2022-10-16T10:08:56;25.70;;;15.40;;
61938;SDS011;47897;50.322;18.892;2022-10-16T10:16:49;21.10;;;14.10;;
61938;SDS011;47897;50.322;18.892;2022-10-16T10:19:20;24.20;;;15.80;;
61938;SDS011;47897;50.322;18.892;2022-10-16T10:21:48;24.70;;;15.50;;
61938;SDS011;47897;50.322;18.892;2022-10-16T10:24:16;25.10;;;16.10;;
61938;SDS011;47897;50.322;18.892;2022-10-16T10:26:51;28.20;;;17.20;;
61938;SDS011;47897;50.322;18.892;2022-10-16T10:29:31;24.30;;;16.90;;
61938;SDS011;47897;50.322;18.892;2022-10-16T10:40:02;21.60;;;14.00;;
61938;SDS011;47897;50.322;18.892;2022-10-16T10:42:44;21.30;;;13.60;;
61938;SDS011;47897;50.322;18.892;2022-10-16T10:45:20;19.40;;;13.30;;
61938;SDS011;47897;50.322;18.892;2022-10-16T10:48:10;22.70;;;14.20;;
61938;SDS011;47897;50.322;18.892;2022-10-16T10:51:10;20.70;;;13.90;;
61938;SDS011;47897;50.322;18.892;2022-10-16T10:54:04;22.70;;;14.80;;
61938;SDS011;47897;50.322;18.892;2022-10-16T10:56:42;23.90;;;15.60;;
61938;SDS011;47897;50.322;18.892;2022-10-16T10:59:25;26.40;;;16.30;;
61938;SDS011;47897;50.322;18.892;2022-10-16T11:02:00;23.80;;;15.30;;
61938;SDS011;47897;50.322;18.892;2022-10-16T11:07:26;25.80;;;16.60;;
61938;SDS011;47897;50.322;18.892;2022-10-16T11:13:15;24.20;;;16.00;;
61938;SDS011;47897;50.322;18.892;2022-10-16T11:15:58;24.70;;;16.90;;
61938;SDS011;47897;50.322;18.892;2022-10-16T11:18:30;22.00;;;15.00;;
61938;SDS011;47897;50.322;18.892;2022-10-16T11:21:07;24.40;;;15.90;;
61938;SDS011;47897;50.322;18.892;2022-10-16T11:26:52;29.90;;;16.90;;
61938;SDS011;47897;50.322;18.892;2022-10-16T11:29:23;23.20;;;15.50;;
61938;SDS011;47897;50.322;18.892;2022-10-16T11:31:58;25.60;;;15.20;;
61938;SDS011;47897;50.322;18.892;2022-10-16T11:35:14;26.70;;;16.60;;
61938;SDS011;47897;50.322;18.892;2022-10-16T11:37:26;24.30;;;15.70;;
61938;SDS011;47897;50.322;18.892;2022-10-16T11:39:58;22.80;;;15.10;;
61938;SDS011;47897;50.322;18.892;2022-10-16T11:42:39;22.90;;;14.50;;
61938;SDS011;47897;50.322;18.892;2022-10-16T11:46:00;21.80;;;14.50;;
61938;SDS011;47897;50.322;18.892;2022-10-16T11:56:06;18.90;;;12.80;;
61938;SDS011;47897;50.322;18.892;2022-10-16T11:58:41;23.40;;;16.30;;
61938;SDS011;47897;50.322;18.892;2022-10-16T12:03:38;21.50;;;14.20;;
61938;SDS011;47897;50.322;18.892;2022-10-16T12:06:13;21.90;;;15.40;;
61938;SDS011;47897;50.322;18.892;2022-10-16T12:08:40;19.20;;;11.00;;
61938;SDS011;47897;50.322;18.892;2022-10-16T12:11:54;22.20;;;13.60;;
61938;SDS011;47897;50.322;18.892;2022-10-16T12:19:20;18.90;;;14.10;;
61938;SDS011;47897;50.322;18.892;2022-10-16T12:21:47;20.00;;;13.80;;
61938;SDS011;47897;50.322;18.892;2022-10-16T12:24:35;22.50;;;15.00;;
61938;SDS011;47897;50.322;18.892;2022-10-16T12:27:04;19.00;;;12.60;;
61938;SDS011;47897;50.322;18.892;2022-10-16T12:29:41;24.40;;;14.70;;
61938;SDS011;47897;50.322;18.892;2022-10-16T12:32:24;20.30;;;13.80;;
61938;SDS011;47897;50.322;18.892;2022-10-16T12:34:52;20.60;;;14.10;;
61938;SDS011;47897;50.322;18.892;2022-10-16T12:37:23;22.20;;;15.70;;
61938;SDS011;47897;50.322;18.892;2022-10-16T12:39:51;18.30;;;11.80;;
61938;SDS011;47897;50.322;18.892;2022-10-16T12:44:55;19.20;;;14.10;;
61938;SDS011;47897;50.322;18.892;2022-10-16T12:49:49;21.20;;;13.90;;
61938;SDS011;47897;50.322;18.892;2022-10-16T12:52:34;22.20;;;15.00;;
61938;SDS011;47897;50.322;18.892;2022-10-16T12:55:03;22.50;;;14.90;;
61938;SDS011;47897;50.322;18.892;2022-10-16T13:05:34;24.20;;;16.40;;
61938;SDS011;47897;50.322;18.892;2022-10-16T13:08:46;24.00;;;16.20;;
61938;SDS011;47897;50.322;18.892;2022-10-16T13:14:09;20.20;;;14.60;;
61938;SDS011;47897;50.322;18.892;2022-10-16T13:22:27;20.30;;;14.60;;
61938;SDS011;47897;50.322;18.892;2022-10-16T13:30:50;21.50;;;14.20;;
61938;SDS011;47897;50.322;18.892;2022-10-16T13:36:23;18.80;;;14.60;;
61938;SDS011;47897;50.322;18.892;2022-10-16T13:44:55;19.50;;;13.10;;
61938;SDS011;47897;50.322;18.892;2022-10-16T13:47:22;18.70;;;13.60;;
61938;SDS011;47897;50.322;18.892;2022-10-16T13:50:00;19.50;;;14.10;;
61938;SDS011;47897;50.322;18.892;2022-10-16T13:52:27;20.60;;;14.50;;
61938;SDS011;47897;50.322;18.892;2022-10-16T13:54:53;23.10;;;15.20;;
61938;SDS011;47897;50.322;18.892;2022-10-16T13:57:21;21.30;;;14.60;;
61938;SDS011;47897;50.322;18.892;2022-10-16T13:59:48;21.00;;;14.30;;
61938;SDS011;47897;50.322;18.892;2022-10-16T14:04:50;23.60;;;16.20;;
61938;SDS011;47897;50.322;18.892;2022-10-16T14:07:26;27.40;;;15.80;;
61938;SDS011;47897;50.322;18.892;2022-10-16T14:09:59;23.10;;;14.10;;
61938;SDS011;47897;50.322;18.892;2022-10-16T14:12:31;26.80;;;17.70;;
61938;SDS011;47897;50.322;18.892;2022-10-16T14:14:57;23.40;;;16.20;;
61938;SDS011;47897;50.322;18.892;2022-10-16T14:19:59;25.70;;;16.80;;
61938;SDS011;47897;50.322;18.892;2022-10-16T14:25:02;25.70;;;16.20;;
61938;SDS011;47897;50.322;18.892;2022-10-16T14:27:44;26.40;;;16.10;;
61938;SDS011;47897;50.322;18.892;2022-10-16T14:30:21;25.70;;;16.10;;
61938;SDS011;47897;50.322;18.892;2022-10-16T14:32:57;19.30;;;14.60;;
61938;SDS011;47897;50.322;18.892;2022-10-16T14:35:27;23.90;;;16.40;;
61938;SDS011;47897;50.322;18.892;2022-10-16T14:40:23;23.70;;;15.70;;
61938;SDS011;47897;50.322;18.892;2022-10-16T14:42:55;27.90;;;17.60;;
61938;SDS011;47897;50.322;18.892;2022-10-16T14:45:21;28.20;;;17.20;;
61938;SDS011;47897;50.322;18.892;2022-10-16T14:47:55;25.20;;;15.50;;
61938;SDS011;47897;50.322;18.892;2022-10-16T14:50:24;28.00;;;17.00;;
61938;SDS011;47897;50.322;18.892;2022-10-16T14:52:50;29.60;;;16.70;;
61938;SDS011;47897;50.322;18.892;2022-10-16T14:55:16;34.10;;;17.40;;
61938;SDS011;47897;50.322;18.892;2022-10-16T14:57:43;22.20;;;15.90;;
61938;SDS011;47897;50.322;18.892;2022-10-16T15:00:15;25.40;;;17.80;;
61938;SDS011;47897;50.322;18.892;2022-10-16T15:02:41;26.50;;;17.30;;
61938;SDS011;47897;50.322;18.892;2022-10-16T15:05:15;25.80;;;17.80;;
61938;SDS011;47897;50.322;18.892;2022-10-16T15:07:47;26.00;;;17.50;;
61938;SDS011;47897;50.322;18.892;2022-10-16T15:10:15;23.70;;;15.90;;
61938;SDS011;47897;50.322;18.892;2022-10-16T15:12:44;28.30;;;16.80;;
61938;SDS011;47897;50.322;18.892;2022-10-16T15:15:21;25.30;;;16.40;;
61938;SDS011;47897;50.322;18.892;2022-10-16T15:17:52;23.80;;;16.40;;
61938;SDS011;47897;50.322;18.892;2022-10-16T15:20:29;23.20;;;17.00;;
61938;SDS011;47897;50.322;18.892;2022-10-16T15:22:59;26.80;;;18.10;;
61938;SDS011;47897;50.322;18.892;2022-10-16T15:25:31;26.90;;;18.70;;
61938;SDS011;47897;50.322;18.892;2022-10-16T15:28:00;24.40;;;16.80;;
61938;SDS011;47897;50.322;18.892;2022-10-16T15:30:27;25.90;;;17.30;;
61938;SDS011;47897;50.322;18.892;2022-10-16T15:32:53;24.00;;;16.20;;
61938;SDS011;47897;50.322;18.892;2022-10-16T15:35:19;24.80;;;17.10;;
61938;SDS011;47897;50.322;18.892;2022-10-16T15:37:46;25.90;;;17.00;;
61938;SDS011;47897;50.322;18.892;2022-10-16T15:40:13;27.90;;;18.70;;
61938;SDS011;47897;50.322;18.892;2022-10-16T15:42:40;29.20;;;17.90;;
61938;SDS011;47897;50.322;18.892;2022-10-16T15:45:05;25.80;;;18.20;;
61938;SDS011;47897;50.322;18.892;2022-10-16T15:47:32;28.40;;;18.10;;
61938;SDS011;47897;50.322;18.892;2022-10-16T15:49:58;26.80;;;17.80;;
61938;SDS011;47897;50.322;18.892;2022-10-16T15:52:24;26.90;;;17.60;;
61938;SDS011;47897;50.322;18.892;2022-10-16T15:54:50;29.30;;;18.50;;
61938;SDS011;47897;50.322;18.892;2022-10-16T15:57:15;29.90;;;18.90;;
61938;SDS011;47897;50.322;18.892;2022-10-16T15:59:43;31.20;;;20.10;;
61938;SDS011;47897;50.322;18.892;2022-10-16T16:02:09;29.30;;;19.80;;
61938;SDS011;47897;50.322;18.892;2022-10-16T16:04:34;27.00;;;19.20;;
61938;SDS011;47897;50.322;18.892;2022-10-16T16:07:00;27.60;;;18.60;;
61938;SDS011;47897;50.322;18.892;2022-10-16T16:09:28;25.20;;;18.00;;
61938;SDS011;47897;50.322;18.892;2022-10-16T16:11:55;28.20;;;18.50;;
61938;SDS011;47897;50.322;18.892;2022-10-16T16:14:20;27.30;;;17.80;;
61938;SDS011;47897;50.322;18.892;2022-10-16T16:16:46;31.30;;;20.40;;
61938;SDS011;47897;50.322;18.892;2022-10-16T16:19:12;31.50;;;20.50;;
61938;SDS011;47897;50.322;18.892;2022-10-16T16:21:38;28.90;;;21.10;;
61938;SDS011;47897;50.322;18.892;2022-10-16T16:24:04;47.40;;;31.90;;
61938;SDS011;47897;50.322;18.892;2022-10-16T16:26:33;40.90;;;29.80;;
61938;SDS011;47897;50.322;18.892;2022-10-16T16:29:03;40.30;;;26.20;;
61938;SDS011;47897;50.322;18.892;2022-10-16T16:31:29;36.80;;;26.60;;
61938;SDS011;47897;50.322;18.892;2022-10-16T16:33:57;42.80;;;24.60;;
61938;SDS011;47897;50.322;18.892;2022-10-16T16:36:23;37.80;;;24.00;;
61938;SDS011;47897;50.322;18.892;2022-10-16T16:38:50;36.50;;;23.20;;
61938;SDS011;47897;50.322;18.892;2022-10-16T16:41:17;37.40;;;26.30;;
61938;SDS011;47897;50.322;18.892;2022-10-16T16:43:47;38.10;;;25.90;;
61938;SDS011;47897;50.322;18.892;2022-10-16T16:46:13;55.10;;;32.20;;